sensor_id;sensor_type;location;lat;lon;timestamp;P1;P2;P0
76784;PMS7003;66893;44.316;0.092;2023-05-15T00:00:55;17.25;16.25;12.75
76784;PMS7003;66893;44.316;0.092;2023-05-15T00:03:21;14.25;14.25;12.25
76784;PMS7003;66893;44.316;0.092;2023-05-15T00:05:46;17.50;16.25;12.75
76784;PMS7003;66893;44.316;0.092;2023-05-15T00:08:12;15.00;14.50;12.25
76784;PMS7003;66893;44.316;0.092;2023-05-15T00:10:37;20.75;17.75;13.75
76784;PMS7003;66893;44.316;0.092;2023-05-15T00:13:03;16.25;15.00;12.00
76784;PMS7003;66893;44.316;0.092;2023-05-15T00:15:28;14.50;14.50;11.75
76784;PMS7003;66893;44.316;0.092;2023-05-15T00:17:54;16.50;16.50;11.25
76784;PMS7003;66893;44.316;0.092;2023-05-15T00:20:19;15.75;15.75;11.25
76784;PMS7003;66893;44.316;0.092;2023-05-15T00:22:45;19.75;17.25;13.75
76784;PMS7003;66893;44.316;0.092;2023-05-15T00:25:10;17.00;16.00;12.50
76784;PMS7003;66893;44.316;0.092;2023-05-15T00:27:36;15.50;14.25;11.50
76784;PMS7003;66893;44.316;0.092;2023-05-15T00:30:01;14.25;13.00;11.25
76784;PMS7003;66893;44.316;0.092;2023-05-15T00:32:27;17.00;16.25;12.50
76784;PMS7003;66893;44.316;0.092;2023-05-15T00:34:53;16.50;13.50;9.50
76784;PMS7003;66893;44.316;0.092;2023-05-15T00:37:18;17.25;15.25;11.25
76784;PMS7003;66893;44.316;0.092;2023-05-15T00:39:43;23.75;18.00;13.25
76784;PMS7003;66893;44.316;0.092;2023-05-15T00:42:09;16.25;15.75;11.25
76784;PMS7003;66893;44.316;0.092;2023-05-15T00:44:35;16.25;14.75;9.75
76784;PMS7003;66893;44.316;0.092;2023-05-15T00:47:03;20.50;16.50;12.00
76784;PMS7003;66893;44.316;0.092;2023-05-15T00:49:31;15.75;15.25;11.75
76784;PMS7003;66893;44.316;0.092;2023-05-15T00:51:59;16.25;14.25;11.25
76784;PMS7003;66893;44.316;0.092;2023-05-15T00:54:27;15.00;13.75;8.75
76784;PMS7003;66893;44.316;0.092;2023-05-15T00:56:55;15.50;15.50;11.00
76784;PMS7003;66893;44.316;0.092;2023-05-15T00:59:21;16.00;14.75;10.75
76784;PMS7003;66893;44.316;0.092;2023-05-15T01:01:54;14.25;13.50;9.00
76784;PMS7003;66893;44.316;0.092;2023-05-15T01:04:20;12.25;12.25;10.00
76784;PMS7003;66893;44.316;0.092;2023-05-15T01:06:45;15.00;12.75;10.00
76784;PMS7003;66893;44.316;0.092;2023-05-15T01:09:13;17.00;14.25;9.50
76784;PMS7003;66893;44.316;0.092;2023-05-15T01:11:39;15.25;13.50;9.75
76784;PMS7003;66893;44.316;0.092;2023-05-15T01:14:07;14.50;13.75;11.25
76784;PMS7003;66893;44.316;0.092;2023-05-15T01:16:33;13.25;11.50;8.00
76784;PMS7003;66893;44.316;0.092;2023-05-15T01:19:00;17.00;17.00;12.00
76784;PMS7003;66893;44.316;0.092;2023-05-15T01:29:28;18.75;15.50;11.50
76784;PMS7003;66893;44.316;0.092;2023-05-15T01:32:01;17.50;14.25;11.25
76784;PMS7003;66893;44.316;0.092;2023-05-15T01:34:31;19.75;16.25;11.25
76784;PMS7003;66893;44.316;0.092;2023-05-15T01:37:02;15.75;14.00;11.00
76784;PMS7003;66893;44.316;0.092;2023-05-15T01:39:31;16.75;14.50;11.75
76784;PMS7003;66893;44.316;0.092;2023-05-15T01:42:12;15.75;15.25;11.25
76784;PMS7003;66893;44.316;0.092;2023-05-15T01:44:42;12.50;11.00;8.25
76784;PMS7003;66893;44.316;0.092;2023-05-15T01:47:15;11.50;10.25;9.75
76784;PMS7003;66893;44.316;0.092;2023-05-15T01:49:45;15.00;14.00;11.25
76784;PMS7003;66893;44.316;0.092;2023-05-15T01:52:15;17.75;15.25;12.25
76784;PMS7003;66893;44.316;0.092;2023-05-15T01:54:46;15.50;13.00;9.50
76784;PMS7003;66893;44.316;0.092;2023-05-15T01:57:13;15.00;13.50;9.75
76784;PMS7003;66893;44.316;0.092;2023-05-15T01:59:40;12.75;12.75;11.25
76784;PMS7003;66893;44.316;0.092;2023-05-15T02:02:06;15.50;14.75;11.50
76784;PMS7003;66893;44.316;0.092;2023-05-15T02:04:33;12.00;12.00;9.00
76784;PMS7003;66893;44.316;0.092;2023-05-15T02:07:00;19.00;17.50;12.25
76784;PMS7003;66893;44.316;0.092;2023-05-15T02:09:28;17.25;13.50;9.50
76784;PMS7003;66893;44.316;0.092;2023-05-15T02:11:56;15.25;12.75;10.00
76784;PMS7003;66893;44.316;0.092;2023-05-15T02:14:22;13.25;13.25;10.25
76784;PMS7003;66893;44.316;0.092;2023-05-15T02:16:50;17.50;14.50;10.75
76784;PMS7003;66893;44.316;0.092;2023-05-15T02:19:15;11.25;10.00;8.75
76784;PMS7003;66893;44.316;0.092;2023-05-15T02:21:41;12.75;12.00;9.00
76784;PMS7003;66893;44.316;0.092;2023-05-15T02:24:06;15.25;14.00;10.25
76784;PMS7003;66893;44.316;0.092;2023-05-15T02:29:19;12.50;12.50;9.25
76784;PMS7003;66893;44.316;0.092;2023-05-15T02:37:16;19.50;15.00;11.50
76784;PMS7003;66893;44.316;0.092;2023-05-15T02:39:48;18.25;15.25;11.25
76784;PMS7003;66893;44.316;0.092;2023-05-15T02:42:18;15.00;13.00;9.50
76784;PMS7003;66893;44.316;0.092;2023-05-15T02:44:44;17.75;15.00;11.25
76784;PMS7003;66893;44.316;0.092;2023-05-15T02:47:10;18.00;15.75;11.25
76784;PMS7003;66893;44.316;0.092;2023-05-15T02:49:37;12.75;12.75;10.00
76784;PMS7003;66893;44.316;0.092;2023-05-15T02:52:04;17.00;16.25;12.25
76784;PMS7003;66893;44.316;0.092;2023-05-15T02:54:29;12.25;8.00;6.00
76784;PMS7003;66893;44.316;0.092;2023-05-15T02:56:55;14.00;12.25;9.25
76784;PMS7003;66893;44.316;0.092;2023-05-15T02:59:20;14.75;12.50;9.50
76784;PMS7003;66893;44.316;0.092;2023-05-15T03:01:46;13.50;12.00;8.75
76784;PMS7003;66893;44.316;0.092;2023-05-15T03:04:15;15.25;13.50;9.50
76784;PMS7003;66893;44.316;0.092;2023-05-15T03:06:41;13.50;13.00;10.75
76784;PMS7003;66893;44.316;0.092;2023-05-15T03:09:06;13.25;12.75;10.75
76784;PMS7003;66893;44.316;0.092;2023-05-15T03:11:32;14.00;14.00;10.25
76784;PMS7003;66893;44.316;0.092;2023-05-15T03:13:57;15.25;13.75;10.50
76784;PMS7003;66893;44.316;0.092;2023-05-15T03:16:24;17.25;15.50;11.00
76784;PMS7003;66893;44.316;0.092;2023-05-15T03:18:50;17.75;14.75;11.75
76784;PMS7003;66893;44.316;0.092;2023-05-15T03:21:16;13.75;13.25;10.75
76784;PMS7003;66893;44.316;0.092;2023-05-15T03:23:41;16.50;14.75;10.25
76784;PMS7003;66893;44.316;0.092;2023-05-15T03:26:07;12.75;12.25;8.75
76784;PMS7003;66893;44.316;0.092;2023-05-15T03:28:32;16.25;13.50;10.25
76784;PMS7003;66893;44.316;0.092;2023-05-15T03:30:58;12.75;10.50;9.50
76784;PMS7003;66893;44.316;0.092;2023-05-15T03:33:23;13.25;12.50;9.25
76784;PMS7003;66893;44.316;0.092;2023-05-15T03:35:49;13.50;13.50;10.75
76784;PMS7003;66893;44.316;0.092;2023-05-15T03:38:16;16.25;12.75;10.25
76784;PMS7003;66893;44.316;0.092;2023-05-15T03:40:41;13.25;12.75;10.75
76784;PMS7003;66893;44.316;0.092;2023-05-15T03:43:06;11.50;11.00;9.00
76784;PMS7003;66893;44.316;0.092;2023-05-15T03:45:32;16.25;15.25;10.50
76784;PMS7003;66893;44.316;0.092;2023-05-15T03:48:01;16.25;14.50;11.25
76784;PMS7003;66893;44.316;0.092;2023-05-15T03:50:27;14.75;13.50;10.00
76784;PMS7003;66893;44.316;0.092;2023-05-15T03:52:52;14.00;13.67;11.00
76784;PMS7003;66893;44.316;0.092;2023-05-15T03:55:18;13.25;13.00;10.25
76784;PMS7003;66893;44.316;0.092;2023-05-15T03:57:43;15.50;14.25;10.50
76784;PMS7003;66893;44.316;0.092;2023-05-15T04:00:09;13.00;13.00;11.50
76784;PMS7003;66893;44.316;0.092;2023-05-15T04:02:35;14.25;12.50;9.50
76784;PMS7003;66893;44.316;0.092;2023-05-15T04:05:02;15.25;15.25;10.75
76784;PMS7003;66893;44.316;0.092;2023-05-15T04:07:28;15.00;13.50;10.50
76784;PMS7003;66893;44.316;0.092;2023-05-15T04:09:54;13.50;11.75;9.75
76784;PMS7003;66893;44.316;0.092;2023-05-15T04:12:19;15.00;15.00;10.00
76784;PMS7003;66893;44.316;0.092;2023-05-15T04:14:46;16.00;13.25;10.50
76784;PMS7003;66893;44.316;0.092;2023-05-15T04:17:11;18.75;16.00;11.75
76784;PMS7003;66893;44.316;0.092;2023-05-15T04:19:37;18.50;14.50;11.00
76784;PMS7003;66893;44.316;0.092;2023-05-15T04:22:04;13.00;12.75;10.75
76784;PMS7003;66893;44.316;0.092;2023-05-15T04:24:30;17.25;14.50;10.75
76784;PMS7003;66893;44.316;0.092;2023-05-15T04:26:56;15.25;13.75;11.25
76784;PMS7003;66893;44.316;0.092;2023-05-15T04:29:21;19.25;14.75;12.00
76784;PMS7003;66893;44.316;0.092;2023-05-15T04:31:46;14.25;13.75;10.50
76784;PMS7003;66893;44.316;0.092;2023-05-15T04:34:12;12.25;12.25;9.75
76784;PMS7003;66893;44.316;0.092;2023-05-15T04:36:37;18.00;14.50;11.25
76784;PMS7003;66893;44.316;0.092;2023-05-15T04:39:03;14.00;13.50;11.00
76784;PMS7003;66893;44.316;0.092;2023-05-15T04:41:28;14.75;14.75;11.25
76784;PMS7003;66893;44.316;0.092;2023-05-15T04:43:54;16.00;13.50;10.75
76784;PMS7003;66893;44.316;0.092;2023-05-15T04:46:20;17.50;15.25;10.25
76784;PMS7003;66893;44.316;0.092;2023-05-15T04:48:45;15.25;15.25;12.25
76784;PMS7003;66893;44.316;0.092;2023-05-15T04:51:11;13.00;12.75;10.25
76784;PMS7003;66893;44.316;0.092;2023-05-15T04:53:36;16.00;15.25;10.75
76784;PMS7003;66893;44.316;0.092;2023-05-15T04:56:02;13.75;13.75;10.75
76784;PMS7003;66893;44.316;0.092;2023-05-15T04:58:27;12.00;12.00;10.00
76784;PMS7003;66893;44.316;0.092;2023-05-15T05:00:52;10.25;8.25;7.75
76784;PMS7003;66893;44.316;0.092;2023-05-15T05:03:18;14.75;13.50;11.00
76784;PMS7003;66893;44.316;0.092;2023-05-15T05:05:43;14.00;12.25;8.50
76784;PMS7003;66893;44.316;0.092;2023-05-15T05:08:09;16.25;15.25;10.25
76784;PMS7003;66893;44.316;0.092;2023-05-15T05:10:34;14.75;14.25;10.75
76784;PMS7003;66893;44.316;0.092;2023-05-15T05:13:00;16.25;14.50;11.00
76784;PMS7003;66893;44.316;0.092;2023-05-15T05:15:25;15.00;15.00;11.25
76784;PMS7003;66893;44.316;0.092;2023-05-15T05:17:51;14.50;14.00;11.75
76784;PMS7003;66893;44.316;0.092;2023-05-15T05:20:17;14.75;14.00;10.75
76784;PMS7003;66893;44.316;0.092;2023-05-15T05:22:42;14.75;14.75;9.25
76784;PMS7003;66893;44.316;0.092;2023-05-15T05:25:08;14.00;13.25;10.50
76784;PMS7003;66893;44.316;0.092;2023-05-15T05:27:33;12.00;10.25;8.25
76784;PMS7003;66893;44.316;0.092;2023-05-15T05:29:59;14.25;13.25;10.50
76784;PMS7003;66893;44.316;0.092;2023-05-15T05:32:24;15.00;14.25;10.50
76784;PMS7003;66893;44.316;0.092;2023-05-15T05:34:50;21.00;20.00;12.75
76784;PMS7003;66893;44.316;0.092;2023-05-15T05:37:15;15.00;14.25;9.75
76784;PMS7003;66893;44.316;0.092;2023-05-15T05:39:41;18.50;15.25;11.50
76784;PMS7003;66893;44.316;0.092;2023-05-15T05:42:06;18.75;14.75;11.75
76784;PMS7003;66893;44.316;0.092;2023-05-15T05:44:31;20.25;15.00;9.50
76784;PMS7003;66893;44.316;0.092;2023-05-15T05:46:58;19.00;17.00;12.00
76784;PMS7003;66893;44.316;0.092;2023-05-15T05:49:24;14.75;13.50;11.25
76784;PMS7003;66893;44.316;0.092;2023-05-15T05:51:49;15.25;14.50;11.50
76784;PMS7003;66893;44.316;0.092;2023-05-15T05:54:15;16.75;16.00;11.50
76784;PMS7003;66893;44.316;0.092;2023-05-15T05:56:42;17.75;15.50;12.00
76784;PMS7003;66893;44.316;0.092;2023-05-15T05:59:08;18.00;17.75;12.00
76784;PMS7003;66893;44.316;0.092;2023-05-15T06:01:34;16.25;15.25;9.50
76784;PMS7003;66893;44.316;0.092;2023-05-15T06:03:59;18.00;18.00;13.25
76784;PMS7003;66893;44.316;0.092;2023-05-15T06:06:25;19.00;17.25;12.50
76784;PMS7003;66893;44.316;0.092;2023-05-15T06:08:51;20.00;18.00;13.00
76784;PMS7003;66893;44.316;0.092;2023-05-15T06:11:16;18.25;17.25;12.50
76784;PMS7003;66893;44.316;0.092;2023-05-15T06:13:42;18.75;18.50;12.75
76784;PMS7003;66893;44.316;0.092;2023-05-15T06:16:07;18.00;18.00;11.50
76784;PMS7003;66893;44.316;0.092;2023-05-15T06:18:33;20.00;17.00;10.75
76784;PMS7003;66893;44.316;0.092;2023-05-15T06:20:58;20.00;18.00;10.00
76784;PMS7003;66893;44.316;0.092;2023-05-15T06:23:25;14.75;14.75;10.25
76784;PMS7003;66893;44.316;0.092;2023-05-15T06:25:50;18.75;17.75;11.50
76784;PMS7003;66893;44.316;0.092;2023-05-15T06:28:16;21.00;17.75;12.75
76784;PMS7003;66893;44.316;0.092;2023-05-15T06:30:41;18.50;18.25;12.25
76784;PMS7003;66893;44.316;0.092;2023-05-15T06:33:07;15.75;15.75;10.75
76784;PMS7003;66893;44.316;0.092;2023-05-15T06:35:32;17.00;16.75;12.25
76784;PMS7003;66893;44.316;0.092;2023-05-15T06:37:58;18.50;15.75;11.00
76784;PMS7003;66893;44.316;0.092;2023-05-15T06:40:23;17.50;14.75;10.75
76784;PMS7003;66893;44.316;0.092;2023-05-15T06:42:49;20.75;18.75;12.75
76784;PMS7003;66893;44.316;0.092;2023-05-15T06:45:14;17.25;16.50;11.25
76784;PMS7003;66893;44.316;0.092;2023-05-15T06:47:40;12.75;12.75;11.00
76784;PMS7003;66893;44.316;0.092;2023-05-15T06:50:05;21.75;17.75;12.50
76784;PMS7003;66893;44.316;0.092;2023-05-15T06:52:31;18.50;16.75;10.00
76784;PMS7003;66893;44.316;0.092;2023-05-15T06:54:56;19.50;17.75;12.25
76784;PMS7003;66893;44.316;0.092;2023-05-15T06:57:22;18.50;16.50;11.00
76784;PMS7003;66893;44.316;0.092;2023-05-15T06:59:47;17.50;16.50;11.50
76784;PMS7003;66893;44.316;0.092;2023-05-15T07:02:13;22.25;17.50;11.75
76784;PMS7003;66893;44.316;0.092;2023-05-15T07:04:38;16.00;15.75;11.25
76784;PMS7003;66893;44.316;0.092;2023-05-15T07:07:04;18.50;17.50;12.25
76784;PMS7003;66893;44.316;0.092;2023-05-15T07:09:30;16.25;16.25;11.75
76784;PMS7003;66893;44.316;0.092;2023-05-15T07:11:55;18.50;16.75;11.25
76784;PMS7003;66893;44.316;0.092;2023-05-15T07:14:21;13.00;12.50;9.75
76784;PMS7003;66893;44.316;0.092;2023-05-15T07:16:46;15.00;14.25;10.75
76784;PMS7003;66893;44.316;0.092;2023-05-15T07:19:12;20.00;17.00;11.50
76784;PMS7003;66893;44.316;0.092;2023-05-15T07:21:38;16.75;14.25;10.25
76784;PMS7003;66893;44.316;0.092;2023-05-15T07:24:04;18.00;15.00;11.25
76784;PMS7003;66893;44.316;0.092;2023-05-15T07:26:32;19.50;16.50;11.75
76784;PMS7003;66893;44.316;0.092;2023-05-15T07:28:58;16.50;15.50;11.25
76784;PMS7003;66893;44.316;0.092;2023-05-15T07:31:23;16.25;12.50;9.75
76784;PMS7003;66893;44.316;0.092;2023-05-15T07:33:49;14.25;13.50;9.75
76784;PMS7003;66893;44.316;0.092;2023-05-15T07:36:14;13.75;13.25;10.25
76784;PMS7003;66893;44.316;0.092;2023-05-15T07:38:40;14.50;14.50;12.00
76784;PMS7003;66893;44.316;0.092;2023-05-15T07:41:05;14.25;14.25;9.75
76784;PMS7003;66893;44.316;0.092;2023-05-15T07:43:31;19.25;16.75;10.00
76784;PMS7003;66893;44.316;0.092;2023-05-15T07:45:56;13.75;12.75;10.25
76784;PMS7003;66893;44.316;0.092;2023-05-15T07:48:21;15.00;14.00;11.00
76784;PMS7003;66893;44.316;0.092;2023-05-15T07:50:47;13.25;13.25;9.00
76784;PMS7003;66893;44.316;0.092;2023-05-15T07:53:15;17.50;15.00;11.25
76784;PMS7003;66893;44.316;0.092;2023-05-15T07:55:43;14.00;13.25;10.25
76784;PMS7003;66893;44.316;0.092;2023-05-15T07:58:10;13.75;13.75;10.75
76784;PMS7003;66893;44.316;0.092;2023-05-15T08:00:35;14.50;12.25;10.00
76784;PMS7003;66893;44.316;0.092;2023-05-15T08:03:02;13.50;12.00;9.50
76784;PMS7003;66893;44.316;0.092;2023-05-15T08:05:27;14.25;12.25;9.00
76784;PMS7003;66893;44.316;0.092;2023-05-15T08:07:53;15.50;13.50;9.75
76784;PMS7003;66893;44.316;0.092;2023-05-15T08:10:19;13.00;12.00;8.75
76784;PMS7003;66893;44.316;0.092;2023-05-15T08:12:45;15.25;13.50;9.50
76784;PMS7003;66893;44.316;0.092;2023-05-15T08:15:11;12.50;10.75;8.25
76784;PMS7003;66893;44.316;0.092;2023-05-15T08:17:37;11.25;10.50;8.00
76784;PMS7003;66893;44.316;0.092;2023-05-15T08:20:02;12.50;11.00;9.00
76784;PMS7003;66893;44.316;0.092;2023-05-15T08:22:29;11.75;10.00;9.00
76784;PMS7003;66893;44.316;0.092;2023-05-15T08:24:55;13.00;12.25;10.25
76784;PMS7003;66893;44.316;0.092;2023-05-15T08:27:22;13.75;11.75;9.50
76784;PMS7003;66893;44.316;0.092;2023-05-15T08:29:47;12.25;12.25;10.25
76784;PMS7003;66893;44.316;0.092;2023-05-15T08:32:12;12.00;10.25;8.00
76784;PMS7003;66893;44.316;0.092;2023-05-15T08:34:38;12.75;10.75;8.00
76784;PMS7003;66893;44.316;0.092;2023-05-15T08:37:04;13.75;11.75;9.75
76784;PMS7003;66893;44.316;0.092;2023-05-15T08:39:30;16.00;14.50;9.25
76784;PMS7003;66893;44.316;0.092;2023-05-15T08:44:21;14.75;11.50;9.25
76784;PMS7003;66893;44.316;0.092;2023-05-15T08:46:48;14.75;13.50;9.50
76784;PMS7003;66893;44.316;0.092;2023-05-15T08:49:17;16.50;12.50;9.50
76784;PMS7003;66893;44.316;0.092;2023-05-15T08:51:50;14.75;14.50;10.00
76784;PMS7003;66893;44.316;0.092;2023-05-15T08:54:17;18.25;16.00;11.25
76784;PMS7003;66893;44.316;0.092;2023-05-15T08:56:42;16.00;16.00;11.50
76784;PMS7003;66893;44.316;0.092;2023-05-15T08:59:08;18.00;15.25;11.00
76784;PMS7003;66893;44.316;0.092;2023-05-15T09:01:34;15.25;14.75;11.25
76784;PMS7003;66893;44.316;0.092;2023-05-15T09:04:00;15.25;14.25;9.50
76784;PMS7003;66893;44.316;0.092;2023-05-15T09:06:25;14.00;12.75;9.50
76784;PMS7003;66893;44.316;0.092;2023-05-15T09:08:52;14.50;14.50;10.00
76784;PMS7003;66893;44.316;0.092;2023-05-15T09:11:21;16.50;12.00;9.25
76784;PMS7003;66893;44.316;0.092;2023-05-15T09:13:48;13.00;12.75;9.75
76784;PMS7003;66893;44.316;0.092;2023-05-15T09:16:14;15.50;14.75;11.50
76784;PMS7003;66893;44.316;0.092;2023-05-15T09:18:39;16.25;14.50;10.75
76784;PMS7003;66893;44.316;0.092;2023-05-15T09:21:24;19.00;18.00;10.25
76784;PMS7003;66893;44.316;0.092;2023-05-15T09:23:52;16.00;14.50;11.75
76784;PMS7003;66893;44.316;0.092;2023-05-15T09:26:19;15.25;11.25;9.25
76784;PMS7003;66893;44.316;0.092;2023-05-15T09:28:45;16.75;14.75;11.25
76784;PMS7003;66893;44.316;0.092;2023-05-15T09:31:11;15.25;13.00;10.50
76784;PMS7003;66893;44.316;0.092;2023-05-15T09:33:37;15.25;14.25;10.25
76784;PMS7003;66893;44.316;0.092;2023-05-15T09:36:04;14.75;14.25;10.50
76784;PMS7003;66893;44.316;0.092;2023-05-15T09:38:31;16.25;14.50;11.00
76784;PMS7003;66893;44.316;0.092;2023-05-15T09:41:01;18.50;13.50;10.00
76784;PMS7003;66893;44.316;0.092;2023-05-15T09:43:37;14.00;13.50;9.25
76784;PMS7003;66893;44.316;0.092;2023-05-15T09:46:04;12.75;12.25;9.50
76784;PMS7003;66893;44.316;0.092;2023-05-15T09:48:30;15.25;14.25;10.00
76784;PMS7003;66893;44.316;0.092;2023-05-15T09:50:56;10.25;9.75;7.25
76784;PMS7003;66893;44.316;0.092;2023-05-15T09:53:22;14.00;13.25;9.50
76784;PMS7003;66893;44.316;0.092;2023-05-15T09:55:48;15.25;14.00;9.75
76784;PMS7003;66893;44.316;0.092;2023-05-15T09:58:15;15.00;13.50;9.50
76784;PMS7003;66893;44.316;0.092;2023-05-15T10:00:42;13.50;12.00;8.50
76784;PMS7003;66893;44.316;0.092;2023-05-15T10:03:09;13.50;12.00;8.25
76784;PMS7003;66893;44.316;0.092;2023-05-15T10:05:35;13.75;12.50;9.75
76784;PMS7003;66893;44.316;0.092;2023-05-15T10:08:01;13.75;13.75;10.25
76784;PMS7003;66893;44.316;0.092;2023-05-15T10:10:27;14.25;11.50;9.00
76784;PMS7003;66893;44.316;0.092;2023-05-15T10:12:55;14.00;12.25;9.25
76784;PMS7003;66893;44.316;0.092;2023-05-15T10:15:23;14.75;12.50;9.25
76784;PMS7003;66893;44.316;0.092;2023-05-15T10:17:50;11.50;11.50;8.25
76784;PMS7003;66893;44.316;0.092;2023-05-15T10:20:17;13.75;10.75;8.00
76784;PMS7003;66893;44.316;0.092;2023-05-15T10:22:44;15.75;12.75;9.75
76784;PMS7003;66893;44.316;0.092;2023-05-15T10:28:07;12.50;12.50;10.50
76784;PMS7003;66893;44.316;0.092;2023-05-15T10:30:34;14.50;11.00;8.25
76784;PMS7003;66893;44.316;0.092;2023-05-15T10:33:01;12.00;10.75;7.50
76784;PMS7003;66893;44.316;0.092;2023-05-15T10:35:29;12.00;11.25;9.00
76784;PMS7003;66893;44.316;0.092;2023-05-15T10:37:54;13.25;11.75;8.75
76784;PMS7003;66893;44.316;0.092;2023-05-15T10:40:21;12.25;12.25;8.00
76784;PMS7003;66893;44.316;0.092;2023-05-15T10:42:47;14.75;11.25;9.00
76784;PMS7003;66893;44.316;0.092;2023-05-15T10:45:13;11.50;10.50;7.25
76784;PMS7003;66893;44.316;0.092;2023-05-15T10:47:39;11.75;10.50;8.00
76784;PMS7003;66893;44.316;0.092;2023-05-15T10:50:06;12.25;9.00;7.50
76784;PMS7003;66893;44.316;0.092;2023-05-15T10:52:32;13.00;11.75;8.00
76784;PMS7003;66893;44.316;0.092;2023-05-15T10:54:59;10.75;10.75;8.50
76784;PMS7003;66893;44.316;0.092;2023-05-15T10:57:27;11.75;11.00;8.25
76784;PMS7003;66893;44.316;0.092;2023-05-15T10:59:55;14.75;11.25;8.25
76784;PMS7003;66893;44.316;0.092;2023-05-15T11:04:58;13.75;10.50;6.75
76784;PMS7003;66893;44.316;0.092;2023-05-15T11:07:25;10.50;10.25;7.50
76784;PMS7003;66893;44.316;0.092;2023-05-15T11:09:52;10.50;8.50;7.00
76784;PMS7003;66893;44.316;0.092;2023-05-15T11:12:18;12.75;9.50;7.75
76784;PMS7003;66893;44.316;0.092;2023-05-15T11:17:15;9.75;9.75;7.50
76784;PMS7003;66893;44.316;0.092;2023-05-15T11:22:21;9.00;7.25;5.75
76784;PMS7003;66893;44.316;0.092;2023-05-15T11:27:40;10.25;10.25;7.50
76784;PMS7003;66893;44.316;0.092;2023-05-15T11:37:57;9.25;9.25;7.50
76784;PMS7003;66893;44.316;0.092;2023-05-15T11:40:28;15.00;13.75;9.00
76784;PMS7003;66893;44.316;0.092;2023-05-15T11:43:15;8.25;8.25;8.00
76784;PMS7003;66893;44.316;0.092;2023-05-15T11:46:03;10.25;10.25;8.00
76784;PMS7003;66893;44.316;0.092;2023-05-15T11:48:33;8.50;8.50;6.75
76784;PMS7003;66893;44.316;0.092;2023-05-15T11:50:59;14.25;10.50;8.00
76784;PMS7003;66893;44.316;0.092;2023-05-15T11:53:26;12.50;8.75;8.00
76784;PMS7003;66893;44.316;0.092;2023-05-15T11:55:53;11.50;11.50;9.25
76784;PMS7003;66893;44.316;0.092;2023-05-15T11:58:20;14.25;14.25;11.25
76784;PMS7003;66893;44.316;0.092;2023-05-15T12:00:48;12.75;12.25;9.00
76784;PMS7003;66893;44.316;0.092;2023-05-15T12:05:43;13.25;11.25;8.00
76784;PMS7003;66893;44.316;0.092;2023-05-15T12:08:09;12.50;10.75;8.25
76784;PMS7003;66893;44.316;0.092;2023-05-15T12:10:39;12.50;11.25;9.00
76784;PMS7003;66893;44.316;0.092;2023-05-15T12:13:06;9.25;8.50;7.00
76784;PMS7003;66893;44.316;0.092;2023-05-15T12:15:35;12.00;11.25;9.00
76784;PMS7003;66893;44.316;0.092;2023-05-15T12:18:02;13.25;13.25;9.25
76784;PMS7003;66893;44.316;0.092;2023-05-15T12:20:27;9.00;9.00;7.00
76784;PMS7003;66893;44.316;0.092;2023-05-15T12:22:53;7.75;7.75;6.00
76784;PMS7003;66893;44.316;0.092;2023-05-15T12:25:19;11.50;11.00;8.25
76784;PMS7003;66893;44.316;0.092;2023-05-15T12:27:44;12.75;12.75;8.00
76784;PMS7003;66893;44.316;0.092;2023-05-15T12:30:11;12.25;10.50;9.50
76784;PMS7003;66893;44.316;0.092;2023-05-15T12:32:38;15.75;13.75;9.50
76784;PMS7003;66893;44.316;0.092;2023-05-15T12:35:04;16.75;14.75;11.25
76784;PMS7003;66893;44.316;0.092;2023-05-15T12:37:30;15.00;12.00;8.00
76784;PMS7003;66893;44.316;0.092;2023-05-15T12:40:00;14.50;10.00;8.00
76784;PMS7003;66893;44.316;0.092;2023-05-15T12:42:41;12.75;11.75;8.50
76784;PMS7003;66893;44.316;0.092;2023-05-15T12:45:14;14.25;14.00;9.25
76784;PMS7003;66893;44.316;0.092;2023-05-15T12:47:41;13.00;12.00;9.25
76784;PMS7003;66893;44.316;0.092;2023-05-15T12:50:12;10.50;10.50;8.00
76784;PMS7003;66893;44.316;0.092;2023-05-15T12:52:51;12.75;11.25;8.25
76784;PMS7003;66893;44.316;0.092;2023-05-15T12:55:21;12.75;11.25;7.50
76784;PMS7003;66893;44.316;0.092;2023-05-15T12:57:49;14.75;12.25;10.50
76784;PMS7003;66893;44.316;0.092;2023-05-15T13:00:15;12.50;12.50;9.75
76784;PMS7003;66893;44.316;0.092;2023-05-15T13:02:44;10.75;10.75;8.00
76784;PMS7003;66893;44.316;0.092;2023-05-15T13:05:10;12.25;10.00;7.75
76784;PMS7003;66893;44.316;0.092;2023-05-15T13:07:36;11.25;11.25;8.00
76784;PMS7003;66893;44.316;0.092;2023-05-15T13:10:05;10.75;10.00;7.50
76784;PMS7003;66893;44.316;0.092;2023-05-15T13:12:35;6.75;6.75;5.50
76784;PMS7003;66893;44.316;0.092;2023-05-15T13:15:02;7.25;7.25;6.50
76784;PMS7003;66893;44.316;0.092;2023-05-15T13:17:29;7.00;7.00;5.00
76784;PMS7003;66893;44.316;0.092;2023-05-15T13:19:54;6.25;6.25;6.00
76784;PMS7003;66893;44.316;0.092;2023-05-15T13:22:20;8.75;7.50;6.00
76784;PMS7003;66893;44.316;0.092;2023-05-15T13:24:45;6.00;6.00;5.25
76784;PMS7003;66893;44.316;0.092;2023-05-15T13:27:10;6.25;5.00;4.00
76784;PMS7003;66893;44.316;0.092;2023-05-15T13:29:36;6.25;6.25;4.50
76784;PMS7003;66893;44.316;0.092;2023-05-15T13:32:01;6.25;6.25;5.00
76784;PMS7003;66893;44.316;0.092;2023-05-15T13:34:27;8.00;8.00;5.00
76784;PMS7003;66893;44.316;0.092;2023-05-15T13:36:52;9.75;7.50;6.00
76784;PMS7003;66893;44.316;0.092;2023-05-15T13:39:18;6.25;6.25;5.25
76784;PMS7003;66893;44.316;0.092;2023-05-15T13:41:43;9.00;8.50;6.50
76784;PMS7003;66893;44.316;0.092;2023-05-15T13:44:08;9.50;8.25;6.75
76784;PMS7003;66893;44.316;0.092;2023-05-15T13:46:34;5.75;4.25;4.00
76784;PMS7003;66893;44.316;0.092;2023-05-15T13:48:59;11.00;7.50;6.00
76784;PMS7003;66893;44.316;0.092;2023-05-15T13:51:25;9.00;8.75;7.50
76784;PMS7003;66893;44.316;0.092;2023-05-15T13:53:51;10.50;9.75;7.25
76784;PMS7003;66893;44.316;0.092;2023-05-15T13:56:16;10.50;9.50;8.00
76784;PMS7003;66893;44.316;0.092;2023-05-15T13:58:42;10.25;10.25;7.00
76784;PMS7003;66893;44.316;0.092;2023-05-15T14:01:07;11.00;9.00;7.75
76784;PMS7003;66893;44.316;0.092;2023-05-15T14:03:33;12.00;12.00;9.00
76784;PMS7003;66893;44.316;0.092;2023-05-15T14:05:58;12.00;11.00;8.00
76784;PMS7003;66893;44.316;0.092;2023-05-15T14:08:24;8.75;8.75;7.25
76784;PMS7003;66893;44.316;0.092;2023-05-15T14:10:49;7.75;7.75;6.00
76784;PMS7003;66893;44.316;0.092;2023-05-15T14:13:15;6.25;6.25;5.00
76784;PMS7003;66893;44.316;0.092;2023-05-15T14:15:40;6.25;6.25;5.25
76784;PMS7003;66893;44.316;0.092;2023-05-15T14:18:05;9.75;8.00;7.00
76784;PMS7003;66893;44.316;0.092;2023-05-15T14:20:31;7.75;7.75;6.50
76784;PMS7003;66893;44.316;0.092;2023-05-15T14:22:56;7.25;7.25;5.25
76784;PMS7003;66893;44.316;0.092;2023-05-15T14:25:22;8.50;8.50;6.00
76784;PMS7003;66893;44.316;0.092;2023-05-15T14:27:48;11.25;10.00;6.75
76784;PMS7003;66893;44.316;0.092;2023-05-15T14:30:13;9.00;8.50;7.25
76784;PMS7003;66893;44.316;0.092;2023-05-15T14:32:39;10.00;9.00;7.00